Pisgah, Maryland
Current Conditions -  °F | °C
As of 6:56 AM on Thursday 29 Jan 2015 (Local Time) from KNYG Reporting Station
Scattered Clouds Scattered Clouds  
Wind Chill: 13°   Ceiling: Unl
Heat Index: 20°   Visibility: 10mi
Dew Point: 14°   Wind: 5mph
Humidity: 78%   Direction: 310°NW
Pressure: 30.35"   Gusts: NA
Location:  38.5236°N, 77.1913°W
Report Text: KNYG 291156Z 31004KT 10SM SCT180 M07/M10 A3035 RMK AO2 SLP278 T10671100 11039 21067 55004 $
Loading
Personal Weather Stations






























Interactive Weather Map New forecast layout! Learn more

10-Day Weather Forecast

Advertisements
Track Severe Weather on mobile